Time;durP1;ratioP1;P1;durP2;ratioP2;P2;SDS_P1;SDS_P2;PMS_P1;PMS_P2;Temp;Humidity;BMP_temperature;BMP_pressure;BME280_temperature;BME280_humidity;BME280_pressure;Samples;Min_cycle;Max_cycle;Signal;HPM_P1;HPM_P2
2022/01/15 00:02:03;;;;;;;;;;;5.00;60.20;;;;;;5074692;28;19912;-69
2022/01/15 00:04:34;;;;;;;;;;;5.10;60.30;;;;;;5059756;28;19995;-69
2022/01/15 00:07:13;;;;;;;;;;;5.10;60.20;;;;;;5074102;28;19916;-69
2022/01/15 00:09:53;;;;;;;;;;;5.20;60.20;;;;;;5073254;28;19926;-70
2022/01/15 00:12:37;;;;;;;;;;;5.20;60.10;;;;;;5055251;28;19920;-69
2022/01/15 00:15:37;;;;;;;;;;;5.20;60.00;;;;;;5090601;28;19958;-69
2022/01/15 00:18:16;;;;;;;;;;;5.30;60.00;;;;;;5055687;28;20023;-69
2022/01/15 00:20:56;;;;;;;;;;;5.30;60.00;;;;;;5060324;28;19924;-69
2022/01/15 00:23:35;;;;;;;;;;;5.40;60.00;;;;;;5056825;28;20395;-70
2022/01/15 00:26:15;;;;;;;;;;;5.40;59.90;;;;;;5056151;28;19913;-70
2022/01/15 00:28:54;;;;;;;;;;;5.40;59.90;;;;;;5063070;28;19986;-70
2022/01/15 00:31:34;;;;;;;;;;;5.50;59.90;;;;;;5074198;28;20242;-69
2022/01/15 00:34:13;;;;;;;;;;;5.50;59.80;;;;;;5055874;28;20382;-69
2022/01/15 00:36:53;;;;;;;;;;;5.50;59.70;;;;;;5074029;28;19912;-69
2022/01/15 00:39:32;;;;;;;;;;;5.60;59.70;;;;;;5073636;28;19944;-70
2022/01/15 00:42:03;;;;;;;;;;;5.50;59.50;;;;;;5055062;28;19913;-69
2022/01/15 00:44:43;;;;;;;;;;;5.50;59.40;;;;;;5089520;28;20347;-69
2022/01/15 00:47:22;;;;;;;;;;;5.50;59.30;;;;;;5054868;28;20467;-70
2022/01/15 00:50:02;;;;;;;;;;;5.40;59.20;;;;;;5073407;28;20006;-69
2022/01/15 00:52:41;;;;;;;;;;;5.40;59.10;;;;;;5059155;28;19923;-69
2022/01/15 00:55:21;;;;;;;;;;;5.30;59.10;;;;;;5073416;28;19943;-69
2022/01/15 00:58:04;;;;;;;;;;;5.30;59.10;;;;;;5054535;28;19943;-69
2022/01/15 01:00:35;;;;;;;;;;;5.20;59.10;;;;;;5073435;28;19913;-69
2022/01/15 01:03:14;;;;;;;;;;;5.20;59.10;;;;;;5073547;28;20010;-70
2022/01/15 01:05:54;;;;;;;;;;;5.10;59.10;;;;;;5072873;28;19912;-70
2022/01/15 01:08:33;;;;;;;;;;;5.00;59.20;;;;;;5089295;28;19920;-69
2022/01/15 01:11:10;;;;;;;;;;;5.00;59.30;;;;;;5034701;28;20274;-70
2022/01/15 01:22:53;;;;;;;;;;;5.10;59.70;;;;;;5073384;28;20391;-69
2022/01/15 01:24:58;;;;;;;;;;;5.10;59.70;;;;;;5063603;28;19919;-69
2022/01/15 01:27:51;;;;;;;;;;;5.20;59.70;;;;;;5072695;28;19916;-70
2022/01/15 01:30:34;;;;;;;;;;;5.20;59.60;;;;;;5068536;28;19927;-70
2022/01/15 01:36:01;;;;;;;;;;;5.20;59.50;;;;;;5073027;28;19915;-69
2022/01/15 01:41:20;;;;;;;;;;;5.20;60.00;;;;;;5073240;28;19995;-69
2022/01/15 01:44:01;;;;;;;;;;;5.30;59.50;;;;;;5073008;28;20245;-69
2022/01/15 01:46:45;;;;;;;;;;;5.30;59.60;;;;;;5067702;28;19920;-69
2022/01/15 01:49:26;;;;;;;;;;;5.40;59.60;;;;;;5053162;28;19921;-69
2022/01/15 01:51:57;;;;;;;;;;;5.40;59.60;;;;;;5068297;28;19916;-69
2022/01/15 01:54:36;;;;;;;;;;;5.50;59.60;;;;;;5052972;28;19909;-69
2022/01/15 01:57:16;;;;;;;;;;;5.60;59.60;;;;;;5054703;28;19912;-69
2022/01/15 01:59:55;;;;;;;;;;;5.60;59.60;;;;;;5072846;28;19963;-70
2022/01/15 02:02:35;;;;;;;;;;;5.70;59.50;;;;;;5088431;28;19916;-69
2022/01/15 02:05:14;;;;;;;;;;;5.70;59.50;;;;;;5071943;28;19908;-69
2022/01/15 02:07:56;;;;;;;;;;;5.80;59.40;;;;;;5072546;28;20344;-69
2022/01/15 02:10:28;;;;;;;;;;;5.80;59.30;;;;;;5072312;28;19919;-69
2022/01/15 02:13:08;;;;;;;;;;;5.90;59.30;;;;;;5072425;28;19912;-70
2022/01/15 02:15:47;;;;;;;;;;;5.90;59.30;;;;;;5072250;28;19943;-69
2022/01/15 02:18:27;;;;;;;;;;;5.90;59.20;;;;;;5072317;28;20421;-69
2022/01/15 02:23:49;;;;;;;;;;;6.00;59.20;;;;;;5072420;28;20007;-69
2022/01/15 02:26:30;;;;;;;;;;;6.10;59.10;;;;;;5053643;28;19963;-69
2022/01/15 02:29:12;;;;;;;;;;;6.10;59.00;;;;;;5061315;28;19925;-70
2022/01/15 02:31:52;;;;;;;;;;;6.10;59.00;;;;;;5050832;28;20273;-70
2022/01/15 02:34:31;;;;;;;;;;;6.10;59.00;;;;;;5071850;28;19963;-70
2022/01/15 02:37:10;;;;;;;;;;;6.20;58.90;;;;;;5088418;28;19912;-69
2022/01/15 02:39:50;;;;;;;;;;;6.20;58.90;;;;;;5072014;28;20002;-70
2022/01/15 02:42:27;;;;;;;;;;;6.20;58.90;;;;;;5071940;28;20368;-69
2022/01/15 02:45:06;;;;;;;;;;;6.20;58.90;;;;;;5053941;28;19935;-69
2022/01/15 02:50:35;;;;;;;;;;;6.30;58.80;;;;;;5072012;28;19924;-70
2022/01/15 02:53:16;;;;;;;;;;;6.40;58.80;;;;;;5088371;28;19908;-69
2022/01/15 02:55:55;;;;;;;;;;;6.40;58.70;;;;;;5071726;28;20455;-69
2022/01/15 02:58:35;;;;;;;;;;;6.40;58.60;;;;;;5071657;28;19912;-70
2022/01/15 03:01:17;;;;;;;;;;;6.40;58.60;;;;;;5071797;28;20402;-69
2022/01/15 03:03:56;;;;;;;;;;;6.50;58.60;;;;;;5071772;28;19912;-69
2022/01/15 03:06:33;;;;;;;;;;;6.50;58.60;;;;;;5071470;28;19923;-70
2022/01/15 03:09:02;;;;;;;;;;;6.50;58.50;;;;;;5053165;28;20393;-69
2022/01/15 03:11:42;;;;;;;;;;;6.50;58.60;;;;;;5070554;28;19908;-69
2022/01/15 03:14:21;;;;;;;;;;;6.50;58.60;;;;;;5072384;28;20257;-69
2022/01/15 03:17:01;;;;;;;;;;;6.50;58.40;;;;;;5091177;28;19967;-69
2022/01/15 03:19:40;;;;;;;;;;;6.50;58.40;;;;;;5075065;28;20464;-70
2022/01/15 03:22:17;;;;;;;;;;;6.60;58.40;;;;;;5074905;28;19917;-70
2022/01/15 03:24:56;;;;;;;;;;;6.60;58.40;;;;;;5075513;28;19967;-70
2022/01/15 03:27:30;;;;;;;;;;;6.60;58.40;;;;;;5075041;28;20352;-69
2022/01/15 03:30:10;;;;;;;;;;;6.60;58.30;;;;;;5055702;28;19917;-67
2022/01/15 03:32:49;;;;;;;;;;;6.60;58.40;;;;;;5055049;28;19913;-69
2022/01/15 03:35:29;;;;;;;;;;;6.60;58.40;;;;;;5061770;28;19912;-69
2022/01/15 03:38:00;;;;;;;;;;;6.70;58.40;;;;;;5091415;28;20473;-69
2022/01/15 03:40:31;;;;;;;;;;;6.70;58.30;;;;;;5074692;28;19913;-70
2022/01/15 03:43:11;;;;;;;;;;;6.70;58.20;;;;;;5074779;28;20433;-70
2022/01/15 03:45:45;;;;;;;;;;;6.70;58.20;;;;;;5074830;28;20398;-68
2022/01/15 03:48:24;;;;;;;;;;;6.70;58.30;;;;;;5074717;28;20288;-69
2022/01/15 03:50:58;;;;;;;;;;;6.70;58.20;;;;;;5074873;28;19909;-69
2022/01/15 03:53:37;;;;;;;;;;;6.70;58.20;;;;;;5074961;28;19929;-70
2022/01/15 03:56:16;;;;;;;;;;;6.70;58.20;;;;;;5074539;28;19908;-69
2022/01/15 03:58:56;;;;;;;;;;;6.70;58.10;;;;;;5074685;28;20376;-69
2022/01/15 04:01:30;;;;;;;;;;;6.70;58.10;;;;;;5074738;28;19935;-69
2022/01/15 04:04:01;;;;;;;;;;;6.70;58.10;;;;;;5090412;28;20309;-69
2022/01/15 04:06:40;;;;;;;;;;;6.70;58.10;;;;;;5074724;28;20008;-69
2022/01/15 04:09:20;;;;;;;;;;;6.70;58.10;;;;;;5056586;28;19963;-67
2022/01/15 04:11:57;;;;;;;;;;;6.70;58.10;;;;;;5074290;28;20288;-69
2022/01/15 04:14:37;;;;;;;;;;;6.80;58.10;;;;;;5074340;28;20412;-67
2022/01/15 04:17:16;;;;;;;;;;;6.70;58.00;;;;;;5074567;28;20390;-69
2022/01/15 04:19:55;;;;;;;;;;;6.70;58.00;;;;;;5074539;28;20364;-70
2022/01/15 04:22:24;;;;;;;;;;;6.80;58.10;;;;;;5074493;28;19963;-70
2022/01/15 04:25:03;;;;;;;;;;;6.80;58.20;;;;;;5074443;28;19913;-68
2022/01/15 04:27:43;;;;;;;;;;;6.80;58.20;;;;;;5073001;28;20011;-68
2022/01/15 04:30:22;;;;;;;;;;;6.80;58.10;;;;;;5053887;28;19917;-70
2022/01/15 04:33:01;;;;;;;;;;;6.80;58.00;;;;;;5053909;28;19999;-69
2022/01/15 04:35:40;;;;;;;;;;;6.80;58.00;;;;;;5053609;28;20352;-70
2022/01/15 04:38:20;;;;;;;;;;;6.80;57.90;;;;;;5054854;28;19979;-70
2022/01/15 04:40:59;;;;;;;;;;;6.80;57.90;;;;;;5073812;28;19912;-70
2022/01/15 04:43:30;;;;;;;;;;;6.80;57.90;;;;;;5073537;28;19962;-70
2022/01/15 04:46:10;;;;;;;;;;;6.80;57.90;;;;;;5055749;28;19958;-69
2022/01/15 04:48:49;;;;;;;;;;;6.80;57.90;;;;;;5054861;28;19917;-69
2022/01/15 04:51:29;;;;;;;;;;;6.80;57.90;;;;;;5073803;28;19995;-70
2022/01/15 04:54:08;;;;;;;;;;;6.80;57.90;;;;;;5073328;28;20331;-69
2022/01/15 04:56:47;;;;;;;;;;;6.90;57.90;;;;;;5073410;28;19912;-69
2022/01/15 04:59:27;;;;;;;;;;;6.90;57.90;;;;;;5073617;28;19909;-69
2022/01/15 05:02:06;;;;;;;;;;;6.90;57.90;;;;;;5073186;28;20363;-69
2022/01/15 05:04:45;;;;;;;;;;;6.90;57.90;;;;;;5073561;28;20018;-69
2022/01/15 05:07:21;;;;;;;;;;;6.90;57.80;;;;;;5054304;28;20285;-69
2022/01/15 05:10:01;;;;;;;;;;;6.90;57.80;;;;;;5073460;28;19916;-69
2022/01/15 05:12:40;;;;;;;;;;;6.90;57.90;;;;;;5073000;28;19981;-69
2022/01/15 05:15:20;;;;;;;;;;;6.90;57.80;;;;;;5073137;28;20022;-69
2022/01/15 05:18:00;;;;;;;;;;;6.90;57.70;;;;;;5072988;28;19983;-69
2022/01/15 05:20:41;;;;;;;;;;;6.90;57.60;;;;;;5072981;28;20331;-69
2022/01/15 05:23:15;;;;;;;;;;;6.90;57.50;;;;;;5072874;28;20353;-69
2022/01/15 05:25:54;;;;;;;;;;;6.90;57.50;;;;;;5072863;28;19913;-68
2022/01/15 05:28:33;;;;;;;;;;;6.90;57.60;;;;;;5065646;28;20392;-69
2022/01/15 05:31:13;;;;;;;;;;;6.90;57.60;;;;;;5053051;28;19909;-69
2022/01/15 05:33:52;;;;;;;;;;;6.90;57.60;;;;;;5052708;28;19931;-67
2022/01/15 05:36:31;;;;;;;;;;;6.90;57.50;;;;;;5089455;28;19912;-69
2022/01/15 05:39:02;;;;;;;;;;;6.90;57.50;;;;;;5071317;28;19915;-70
2022/01/15 05:41:42;;;;;;;;;;;6.90;57.50;;;;;;5080646;28;19912;-69
2022/01/15 05:44:21;;;;;;;;;;;6.90;57.50;;;;;;5093609;28;19908;-69
2022/01/15 05:46:50;;;;;;;;;;;6.90;57.40;;;;;;5092869;28;20367;-69
2022/01/15 05:49:29;;;;;;;;;;;6.90;57.40;;;;;;5093287;28;19912;-69
2022/01/15 05:52:08;;;;;;;;;;;6.80;57.40;;;;;;5093216;28;20264;-69
2022/01/15 05:54:48;;;;;;;;;;;6.90;57.50;;;;;;5092126;28;19912;-70
2022/01/15 05:57:27;;;;;;;;;;;6.90;57.40;;;;;;5074832;28;19912;-70
2022/01/15 06:00:01;;;;;;;;;;;6.90;57.40;;;;;;5093144;28;19916;-70
2022/01/15 06:02:36;;;;;;;;;;;6.90;57.40;;;;;;5109427;28;20000;-69
2022/01/15 06:05:15;;;;;;;;;;;6.90;57.40;;;;;;5093495;28;19915;-67
2022/01/15 06:07:55;;;;;;;;;;;6.90;57.50;;;;;;5072894;28;19916;-70
2022/01/15 06:10:34;;;;;;;;;;;6.90;57.50;;;;;;5109804;28;19923;-68
2022/01/15 06:13:14;;;;;;;;;;;6.90;57.50;;;;;;5093729;28;19911;-69
2022/01/15 06:15:45;;;;;;;;;;;6.90;57.40;;;;;;5093500;28;19908;-70
2022/01/15 06:18:24;;;;;;;;;;;6.90;57.40;;;;;;5093529;28;19924;-69
2022/01/15 06:21:03;;;;;;;;;;;6.90;57.30;;;;;;5093846;28;20276;-69
2022/01/15 06:23:43;;;;;;;;;;;6.90;57.40;;;;;;5093388;28;19912;-69
2022/01/15 06:26:22;;;;;;;;;;;6.90;57.40;;;;;;5074409;28;19916;-69
2022/01/15 06:29:14;;;;;;;;;;;6.90;57.30;;;;;;5075467;28;19912;-70
2022/01/15 06:31:53;;;;;;;;;;;6.90;57.30;;;;;;5109324;28;19909;-70
2022/01/15 06:34:33;;;;;;;;;;;6.90;57.30;;;;;;5074595;28;20434;-70
2022/01/15 06:37:10;;;;;;;;;;;6.90;57.30;;;;;;5093525;28;19908;-69
2022/01/15 06:39:49;;;;;;;;;;;6.90;57.30;;;;;;5093473;28;19924;-69
2022/01/15 06:42:29;;;;;;;;;;;6.90;57.80;;;;;;5109953;28;19915;-69
2022/01/15 06:45:08;;;;;;;;;;;6.90;57.30;;;;;;5093165;28;19920;-69
2022/01/15 06:47:47;;;;;;;;;;;6.90;57.30;;;;;;5093068;28;19927;-70
2022/01/15 06:50:27;;;;;;;;;;;6.90;57.30;;;;;;5076307;28;19972;-70
2022/01/15 06:53:06;;;;;;;;;;;6.90;57.30;;;;;;5097312;28;19908;-69
2022/01/15 06:55:46;;;;;;;;;;;6.90;57.30;;;;;;5096920;28;19995;-69
2022/01/15 06:58:25;;;;;;;;;;;6.90;57.30;;;;;;5097066;28;19966;-69
2022/01/15 07:01:04;;;;;;;;;;;6.90;57.30;;;;;;5097206;28;19908;-69
2022/01/15 07:03:44;;;;;;;;;;;6.90;57.30;;;;;;5096825;28;19947;-70
2022/01/15 07:06:23;;;;;;;;;;;6.90;57.20;;;;;;5093729;28;20333;-67
2022/01/15 07:09:03;;;;;;;;;;;6.90;57.20;;;;;;5077876;28;19920;-69
2022/01/15 07:11:42;;;;;;;;;;;6.90;57.20;;;;;;5096636;28;19914;-69
2022/01/15 07:14:21;;;;;;;;;;;6.90;57.20;;;;;;5096630;28;20007;-69
2022/01/15 07:17:01;;;;;;;;;;;6.90;57.30;;;;;;5096817;28;19922;-69
2022/01/15 07:19:31;;;;;;;;;;;6.90;57.20;;;;;;5096189;28;19924;-70
2022/01/15 07:22:02;;;;;;;;;;;6.90;57.20;;;;;;5096700;28;19908;-68
2022/01/15 07:24:42;;;;;;;;;;;6.90;57.20;;;;;;5096312;28;20372;-67
2022/01/15 07:27:21;;;;;;;;;;;6.90;57.20;;;;;;5078296;28;19942;-69
2022/01/15 07:30:00;;;;;;;;;;;6.90;57.20;;;;;;5096534;28;19912;-69
2022/01/15 07:32:40;;;;;;;;;;;6.90;57.20;;;;;;5096540;28;19912;-69
2022/01/15 07:35:11;;;;;;;;;;;6.90;57.30;;;;;;5096357;28;19916;-70
2022/01/15 07:37:50;;;;;;;;;;;6.90;57.30;;;;;;5078187;28;20012;-69
2022/01/15 07:40:29;;;;;;;;;;;7.00;57.50;;;;;;5095901;28;19951;-67
2022/01/15 07:43:09;;;;;;;;;;;7.00;57.50;;;;;;5077083;28;19916;-67
2022/01/15 07:45:49;;;;;;;;;;;7.00;57.40;;;;;;5077215;28;19909;-69
2022/01/15 07:48:28;;;;;;;;;;;7.10;57.50;;;;;;5095830;28;20276;-69
2022/01/15 07:51:07;;;;;;;;;;;7.10;57.50;;;;;;5096262;28;19908;-69
2022/01/15 07:53:47;;;;;;;;;;;7.20;57.40;;;;;;5095902;28;19909;-70
2022/01/15 07:56:26;;;;;;;;;;;7.20;57.40;;;;;;5095735;28;19908;-69
2022/01/15 07:59:03;;;;;;;;;;;7.20;57.30;;;;;;5096051;28;19908;-70
2022/01/15 08:01:42;;;;;;;;;;;7.20;57.20;;;;;;5095550;28;19912;-68
2022/01/15 08:04:16;;;;;;;;;;;7.30;57.30;;;;;;5089213;28;19908;-70
2022/01/15 08:06:53;;;;;;;;;;;7.30;57.20;;;;;;5095410;28;19966;-69
2022/01/15 08:09:32;;;;;;;;;;;7.40;57.30;;;;;;5095978;28;19916;-70
2022/01/15 08:12:11;;;;;;;;;;;7.40;57.20;;;;;;5095469;28;19908;-70
2022/01/15 08:14:51;;;;;;;;;;;7.40;57.20;;;;;;5095784;28;19908;-70
2022/01/15 08:17:22;;;;;;;;;;;7.50;57.10;;;;;;5096160;28;19920;-69
2022/01/15 08:20:01;;;;;;;;;;;7.50;57.10;;;;;;5077147;28;19950;-69
2022/01/15 08:22:40;;;;;;;;;;;7.50;57.00;;;;;;5095588;28;19908;-70
2022/01/15 08:25:12;;;;;;;;;;;7.50;57.00;;;;;;5095822;28;19912;-69
2022/01/15 08:27:40;;;;;;;;;;;7.60;57.00;;;;;;5095064;28;20368;-69
2022/01/15 08:30:20;;;;;;;;;;;7.60;57.00;;;;;;5095259;28;19927;-69
2022/01/15 08:33:00;;;;;;;;;;;7.70;57.10;;;;;;5094873;28;19912;-68
2022/01/15 08:35:39;;;;;;;;;;;7.80;57.20;;;;;;5094985;28;19912;-69
2022/01/15 08:38:18;;;;;;;;;;;7.80;57.00;;;;;;5094978;28;19909;-68
2022/01/15 08:40:58;;;;;;;;;;;7.90;56.80;;;;;;5095046;28;19915;-69
2022/01/15 08:43:37;;;;;;;;;;;7.90;56.80;;;;;;5094950;28;19909;-69
2022/01/15 08:46:13;;;;;;;;;;;7.90;56.70;;;;;;5095042;28;19914;-69
2022/01/15 08:48:45;;;;;;;;;;;8.00;56.80;;;;;;5110645;28;19912;-69
2022/01/15 08:51:24;;;;;;;;;;;8.10;56.80;;;;;;5056809;28;19995;-69
2022/01/15 08:54:04;;;;;;;;;;;8.10;56.80;;;;;;5103874;28;19925;-69
2022/01/15 08:56:43;;;;;;;;;;;8.20;56.80;;;;;;5094570;28;20375;-69
2022/01/15 08:59:23;;;;;;;;;;;8.30;56.70;;;;;;5076137;28;19912;-69
2022/01/15 09:02:02;;;;;;;;;;;8.30;56.40;;;;;;5075441;28;19991;-69
2022/01/15 09:04:42;;;;;;;;;;;8.40;56.40;;;;;;5075661;28;20426;-69
2022/01/15 09:07:22;;;;;;;;;;;8.50;56.40;;;;;;5075612;28;19912;-69
2022/01/15 09:10:01;;;;;;;;;;;8.50;56.30;;;;;;5094279;28;19970;-69
2022/01/15 09:12:40;;;;;;;;;;;8.60;56.40;;;;;;5093862;28;19908;-69
2022/01/15 09:15:15;;;;;;;;;;;8.60;56.30;;;;;;5094181;28;19912;-68
2022/01/15 09:17:54;;;;;;;;;;;8.70;56.00;;;;;;5092941;28;20003;-69
2022/01/15 09:20:33;;;;;;;;;;;8.70;56.60;;;;;;5094133;28;19917;-69
2022/01/15 09:22:59;;;;;;;;;;;8.80;55.90;;;;;;5093200;28;19918;-69
2022/01/15 09:25:38;;;;;;;;;;;8.80;55.70;;;;;;5094550;28;19908;-69
2022/01/15 09:30:53;;;;;;;;;;;8.80;55.50;;;;;;5093853;28;20011;-69
2022/01/15 09:33:33;;;;;;;;;;;8.90;55.50;;;;;;5076109;28;19908;-69
2022/01/15 09:36:13;;;;;;;;;;;8.90;55.40;;;;;;5095740;28;20344;-69
2022/01/15 09:38:44;;;;;;;;;;;8.90;55.40;;;;;;5073719;28;19915;-69
2022/01/15 09:41:18;;;;;;;;;;;8.90;55.40;;;;;;5073902;28;19912;-69
2022/01/15 09:43:44;;;;;;;;;;;9.00;55.40;;;;;;5092286;28;19912;-69
2022/01/15 09:46:10;;;;;;;;;;;9.00;55.50;;;;;;5093736;28;20357;-68
2022/01/15 09:48:38;;;;;;;;;;;9.10;55.50;;;;;;5094072;28;20013;-68
2022/01/15 09:51:04;;;;;;;;;;;9.20;55.40;;;;;;5094105;28;19908;-69
2022/01/15 09:53:32;;;;;;;;;;;9.20;55.30;;;;;;5092873;28;20297;-68
2022/01/15 09:55:57;;;;;;;;;;;9.30;55.20;;;;;;5092960;28;19908;-69
2022/01/15 09:58:23;;;;;;;;;;;9.30;54.90;;;;;;5093188;28;19915;-69
2022/01/15 10:00:48;;;;;;;;;;;9.40;54.90;;;;;;5075861;28;20309;-69
2022/01/15 10:03:14;;;;;;;;;;;9.40;54.80;;;;;;5093905;28;19927;-69
2022/01/15 10:05:40;;;;;;;;;;;9.30;54.70;;;;;;5075892;28;19942;-69
2022/01/15 10:08:20;;;;;;;;;;;9.40;54.50;;;;;;5093732;28;19930;-69
2022/01/15 10:10:55;;;;;;;;;;;9.30;54.50;;;;;;5093289;28;19908;-69
2022/01/15 10:13:35;;;;;;;;;;;9.30;54.50;;;;;;5075782;28;19913;-69
2022/01/15 10:16:29;;;;;;;;;;;9.30;54.40;;;;;;5081565;28;20351;-69
2022/01/15 10:19:09;;;;;;;;;;;9.30;54.50;;;;;;5079011;28;19920;-68
2022/01/15 10:21:48;;;;;;;;;;;9.30;54.60;;;;;;5079167;28;19924;-68
2022/01/15 10:24:14;;;;;;;;;;;9.30;54.60;;;;;;5093849;28;19957;-69
2022/01/15 10:26:53;;;;;;;;;;;9.40;54.70;;;;;;5097931;28;19908;-69
2022/01/15 10:29:30;;;;;;;;;;;9.40;54.90;;;;;;5096773;28;19916;-69
2022/01/15 10:32:04;;;;;;;;;;;9.50;55.10;;;;;;5097639;28;19919;-69
2022/01/15 10:34:32;;;;;;;;;;;9.60;55.00;;;;;;5078549;28;19954;-68
2022/01/15 10:37:08;;;;;;;;;;;9.70;55.00;;;;;;5082419;28;20003;-69
2022/01/15 10:39:39;;;;;;;;;;;9.80;55.00;;;;;;5097251;28;19909;-69
2022/01/15 10:42:26;;;;;;;;;;;9.90;55.00;;;;;;5079395;28;19911;-69
2022/01/15 10:45:05;;;;;;;;;;;10.00;54.90;;;;;;5097121;28;20347;-69
2022/01/15 10:47:38;;;;;;;;;;;10.00;54.70;;;;;;5097486;28;19908;-69
2022/01/15 10:50:17;;;;;;;;;;;10.10;54.70;;;;;;5097735;28;20000;-69
2022/01/15 10:52:48;;;;;;;;;;;10.20;54.60;;;;;;5097567;28;20166;-69
2022/01/15 10:55:31;;;;;;;;;;;10.20;54.50;;;;;;5097625;28;20348;-69
2022/01/15 10:58:11;;;;;;;;;;;10.30;54.40;;;;;;5096978;28;19904;-69
2022/01/15 11:00:51;;;;;;;;;;;10.40;54.40;;;;;;5096889;28;19911;-69
2022/01/15 11:03:25;;;;;;;;;;;10.50;54.30;;;;;;5096897;28;19946;-69
2022/01/15 11:06:05;;;;;;;;;;;10.50;54.20;;;;;;5096757;28;20366;-70
2022/01/15 11:08:50;;;;;;;;;;;10.50;54.10;;;;;;5096716;28;19912;-69
2022/01/15 11:11:30;;;;;;;;;;;10.60;54.20;;;;;;5096724;28;19908;-70
2022/01/15 11:14:09;;;;;;;;;;;10.70;54.10;;;;;;5077987;28;19904;-70
2022/01/15 11:16:48;;;;;;;;;;;10.70;53.90;;;;;;5096695;28;19915;-70
2022/01/15 11:19:28;;;;;;;;;;;10.70;53.70;;;;;;5076566;28;19920;-70
2022/01/15 11:22:10;;;;;;;;;;;10.80;53.70;;;;;;5076566;28;19904;-70
2022/01/15 11:24:49;;;;;;;;;;;10.80;53.70;;;;;;5095653;28;19915;-70
2022/01/15 11:27:29;;;;;;;;;;;10.80;53.60;;;;;;5095256;28;20049;-70
2022/01/15 11:30:08;;;;;;;;;;;10.80;53.50;;;;;;5095251;28;19916;-68
2022/01/15 11:32:41;;;;;;;;;;;10.90;53.50;;;;;;5095120;28;19904;-70
2022/01/15 11:35:20;;;;;;;;;;;10.90;53.50;;;;;;5094786;28;20374;-70
2022/01/15 11:37:59;;;;;;;;;;;11.00;54.20;;;;;;5076448;28;20307;-70
2022/01/15 11:40:43;;;;;;;;;;;11.00;53.70;;;;;;5095116;28;19904;-70
2022/01/15 11:43:23;;;;;;;;;;;11.20;53.90;;;;;;5077069;28;20011;-70
2022/01/15 11:46:03;;;;;;;;;;;11.40;53.70;;;;;;5095031;28;19905;-70
2022/01/15 11:48:42;;;;;;;;;;;11.50;53.20;;;;;;5094979;28;19912;-70
2022/01/15 11:51:42;;;;;;;;;;;11.50;52.70;;;;;;5076213;28;19909;-70
2022/01/15 11:54:25;;;;;;;;;;;11.60;52.50;;;;;;5075683;28;19904;-70
2022/01/15 11:57:04;;;;;;;;;;;11.70;52.20;;;;;;5094878;28;19904;-70
2022/01/15 11:59:50;;;;;;;;;;;11.70;52.10;;;;;;5094846;28;19912;-70
2022/01/15 12:02:30;;;;;;;;;;;11.80;52.30;;;;;;5076819;28;20411;-70
2022/01/15 12:05:14;;;;;;;;;;;11.80;52.30;;;;;;5094943;28;19908;-70
2022/01/15 12:07:54;;;;;;;;;;;11.90;52.20;;;;;;5094786;28;19908;-70
2022/01/15 12:10:46;;;;;;;;;;;12.00;52.30;;;;;;5094471;28;20290;-70
2022/01/15 12:13:26;;;;;;;;;;;12.10;52.80;;;;;;5094827;28;19904;-70
2022/01/15 12:16:10;;;;;;;;;;;12.20;52.00;;;;;;5094561;28;20228;-70
2022/01/15 12:18:49;;;;;;;;;;;12.30;51.40;;;;;;4927076;28;4760386;-71
2022/01/15 12:21:33;;;;;;;;;;;12.30;51.00;;;;;;5096009;28;19931;-70
2022/01/15 12:24:27;;;;;;;;;;;12.30;50.90;;;;;;5095348;28;19904;-70
2022/01/15 12:27:03;;;;;;;;;;;12.30;51.10;;;;;;5066951;28;19999;-70
2022/01/15 12:29:39;;;;;;;;;;;12.30;51.10;;;;;;5095487;28;19954;-70
2022/01/15 12:32:12;;;;;;;;;;;12.40;51.20;;;;;;5077314;28;19939;-71
2022/01/15 12:34:46;;;;;;;;;;;12.50;51.30;;;;;;5095475;28;19994;-71
2022/01/15 12:37:33;;;;;;;;;;;;;;;;;;;;;
2022/01/15 12:40:13;;;;;;;;;;;12.60;51.00;;;;;;5095048;28;19904;-70
2022/01/15 12:42:52;;;;;;;;;;;12.60;51.00;;;;;;5095590;28;20243;-70
2022/01/15 12:45:32;;;;;;;;;;;12.70;50.70;;;;;;5095271;28;19911;-70
2022/01/15 12:48:11;;;;;;;;;;;12.70;50.60;;;;;;5093917;28;19908;-70
2022/01/15 12:50:47;;;;;;;;;;;12.70;50.50;;;;;;5076484;28;19948;-70
2022/01/15 12:53:27;;;;;;;;;;;12.70;50.40;;;;;;5095066;28;19910;-70
2022/01/15 12:56:06;;;;;;;;;;;12.70;50.40;;;;;;5075824;28;19905;-70
2022/01/15 12:58:43;;;;;;;;;;;12.70;50.30;;;;;;5094759;28;19904;-70
2022/01/15 13:01:27;;;;;;;;;;;12.70;50.20;;;;;;5076768;28;20303;-70
2022/01/15 13:04:06;;;;;;;;;;;12.70;50.20;;;;;;5094478;28;19911;-71
2022/01/15 13:06:47;;;;;;;;;;;12.70;50.30;;;;;;5094737;28;20002;-70
2022/01/15 13:09:27;;;;;;;;;;;12.70;50.50;;;;;;5076626;28;20252;-70
2022/01/15 13:12:06;;;;;;;;;;;12.80;50.60;;;;;;5094735;28;19990;-70
2022/01/15 13:14:43;;;;;;;;;;;12.90;50.50;;;;;;5094397;28;19904;-70
2022/01/15 13:17:33;;;;;;;;;;;12.90;50.50;;;;;;5094712;28;19947;-70
2022/01/15 13:20:12;;;;;;;;;;;13.00;50.40;;;;;;5075523;28;19986;-70
2022/01/15 13:22:50;;;;;;;;;;;13.00;50.20;;;;;;5094178;28;19904;-70
2022/01/15 13:25:25;;;;;;;;;;;13.10;50.30;;;;;;5094203;28;19915;-71
2022/01/15 13:28:04;;;;;;;;;;;13.20;50.40;;;;;;5094411;28;19908;-70
2022/01/15 13:30:44;;;;;;;;;;;13.20;50.40;;;;;;5094454;28;19930;-70
2022/01/15 13:33:23;;;;;;;;;;;13.30;50.30;;;;;;5094105;28;19904;-70
2022/01/15 13:36:02;;;;;;;;;;;13.40;50.20;;;;;;5093986;28;20470;-70
2022/01/15 13:38:43;;;;;;;;;;;13.40;50.00;;;;;;5075221;28;19905;-70
2022/01/15 13:41:39;;;;;;;;;;;13.40;49.70;;;;;;5093975;28;19912;-70
2022/01/15 13:44:06;;;;;;;;;;;13.40;49.40;;;;;;5093624;28;19997;-71
2022/01/15 13:46:45;;;;;;;;;;;13.40;49.20;;;;;;5064632;28;19994;-70
2022/01/15 13:49:19;;;;;;;;;;;13.40;48.90;;;;;;5094694;28;20290;-70
2022/01/15 13:55:00;;;;;;;;;;;13.20;48.90;;;;;;5094679;28;19910;-70
2022/01/15 13:57:39;;;;;;;;;;;13.20;49.00;;;;;;5094110;28;19992;-72
2022/01/15 14:00:25;;;;;;;;;;;13.10;49.10;;;;;;5105887;28;19995;-71
2022/01/15 14:03:10;;;;;;;;;;;13.10;49.10;;;;;;5114352;28;19930;-71
2022/01/15 14:05:39;;;;;;;;;;;13.10;49.20;;;;;;5114359;28;19908;-71
2022/01/15 14:08:13;;;;;;;;;;;13.10;49.00;;;;;;5114810;28;20243;-72
2022/01/15 14:10:53;;;;;;;;;;;13.00;48.80;;;;;;5114360;28;19907;-71
2022/01/15 14:13:29;;;;;;;;;;;12.90;48.50;;;;;;5095156;28;19905;-71
2022/01/15 14:16:09;;;;;;;;;;;12.80;48.30;;;;;;5093937;28;19908;-71
2022/01/15 14:18:49;;;;;;;;;;;12.60;48.30;;;;;;5093771;28;19920;-71
2022/01/15 14:24:21;;;;;;;;;;;12.20;48.30;;;;;;5093515;28;20259;-71
2022/01/15 14:27:01;;;;;;;;;;;12.00;48.40;;;;;;5093715;28;19908;-71
2022/01/15 14:29:38;;;;;;;;;;;11.70;48.50;;;;;;5074712;28;19909;-71
2022/01/15 14:32:15;;;;;;;;;;;11.50;48.60;;;;;;5109389;28;19911;-71
2022/01/15 14:34:49;;;;;;;;;;;11.30;48.80;;;;;;5093429;28;19958;-71
2022/01/15 14:37:28;;;;;;;;;;;11.20;48.90;;;;;;5075577;28;19906;-71
2022/01/15 14:40:07;;;;;;;;;;;11.00;49.10;;;;;;5093367;28;19904;-71
2022/01/15 14:42:47;;;;;;;;;;;10.80;49.20;;;;;;5093261;28;20255;-71
2022/01/15 14:45:26;;;;;;;;;;;10.70;49.40;;;;;;5110185;28;19984;-71
2022/01/15 14:48:06;;;;;;;;;;;10.50;49.50;;;;;;5075277;28;20061;-71
2022/01/15 14:50:46;;;;;;;;;;;10.30;49.60;;;;;;5109557;28;20374;-71
2022/01/15 14:53:25;;;;;;;;;;;10.20;49.80;;;;;;5093388;28;19922;-71
2022/01/15 14:56:04;;;;;;;;;;;10.00;49.90;;;;;;5093099;28;19958;-71
2022/01/15 14:58:44;;;;;;;;;;;9.90;50.00;;;;;;5074448;28;19994;-71
2022/01/15 15:01:26;;;;;;;;;;;9.80;50.10;;;;;;5074805;28;20233;-71
2022/01/15 15:04:00;;;;;;;;;;;9.70;50.20;;;;;;5074446;28;19936;-71
2022/01/15 15:06:40;;;;;;;;;;;9.60;50.50;;;;;;5075147;28;19912;-71
2022/01/15 15:09:17;;;;;;;;;;;9.40;50.40;;;;;;5093116;28;19934;-70
2022/01/15 15:11:56;;;;;;;;;;;9.30;50.60;;;;;;5077826;28;19904;-71
2022/01/15 15:14:35;;;;;;;;;;;9.20;50.70;;;;;;5097016;28;19904;-70
2022/01/15 15:17:15;;;;;;;;;;;9.10;50.80;;;;;;5096918;28;19909;-71
2022/01/15 15:19:54;;;;;;;;;;;9.00;51.00;;;;;;5077074;28;20015;-71
2022/01/15 15:22:28;;;;;;;;;;;8.90;51.10;;;;;;5076116;28;19911;-71
2022/01/15 15:25:08;;;;;;;;;;;8.80;51.20;;;;;;5058624;28;19951;-71
2022/01/15 15:27:47;;;;;;;;;;;8.70;51.30;;;;;;5057438;28;19915;-71
2022/01/15 15:30:27;;;;;;;;;;;8.60;51.30;;;;;;5057539;28;20419;-70
2022/01/15 15:33:06;;;;;;;;;;;8.50;51.50;;;;;;5076258;28;19904;-71
2022/01/15 15:35:46;;;;;;;;;;;8.40;51.60;;;;;;5076562;28;19984;-70
2022/01/15 15:38:25;;;;;;;;;;;8.30;51.70;;;;;;5075966;28;19950;-70
2022/01/15 15:41:05;;;;;;;;;;;8.20;51.70;;;;;;5057435;28;19952;-70
2022/01/15 15:43:44;;;;;;;;;;;8.10;51.80;;;;;;5057301;28;19951;-70
2022/01/15 15:46:15;;;;;;;;;;;8.00;51.90;;;;;;5076013;28;19912;-70
2022/01/15 15:48:54;;;;;;;;;;;7.90;52.00;;;;;;5075695;28;19916;-70
2022/01/15 15:51:28;;;;;;;;;;;7.80;52.10;;;;;;5075584;28;19904;-70
2022/01/15 15:54:07;;;;;;;;;;;7.70;52.20;;;;;;5055727;28;19991;-70
2022/01/15 15:56:50;;;;;;;;;;;7.60;52.20;;;;;;5055520;28;20352;-70
2022/01/15 15:59:29;;;;;;;;;;;7.60;52.40;;;;;;5037060;28;19909;-70
2022/01/15 16:02:08;;;;;;;;;;;7.50;52.50;;;;;;5055550;28;20238;-70